• Join FlightAware (Why Join?)
  • Login
  • US Flag 
06:51AM EDT


 

Airport Tracker/Info


-or-


 

Live Flight TrackerFlight Track Log ✈ DAL3676 ✈ 18-Jun-2013 ✈ KDTW - KIND

Flight Track Log - Related Links

Times and Time Zones

All times are in EDT time to prevent confusion due to time zone crossing. See the DAL3676 flight status page for this flight to view local times or setup timezone preferences in your user account.

Time Position Orientation Groundspeed Altitude Reporting Facility
EDT Latitude Longitude Course Direction KTS MPH feet Rate Location/Type
08:30AM 42.2333 -83.3344 206° Southwest 141 162 1,500  Level Cleveland Center
08:31AM 42.2850 -83.3506 347° North 207 238 3,500 1,920 Climbing Cleveland Center
08:32AM 42.3556 -83.3678 350° North 273 314 5,900 2,280 Climbing Cleveland Center
08:33AM 41.9566 -83.5435 217° Southwest  Level FlightAware Approximate
08:33AM 42.3767 -83.4389 292° West 267 307 8,200  Level Cleveland Center
08:34AM 41.8777 -83.6146 211° Southwest  Level FlightAware Approximate
08:34AM 42.3597 -83.5339 256° West 277 319 10,500  Level Cleveland Center
08:35AM 41.7943 -83.6760 206° Southwest  Level FlightAware Approximate
08:35AM 42.2939 -83.5842 209° Southwest 349 402 11,500  Level Cleveland Center
08:36AM 42.1992 -83.6131 193° South 386 444 13,100 2,040 Climbing Cleveland Center
08:37AM 42.0983 -83.6503 195° South 386 444 15,600 2,220 Climbing Cleveland Center
08:38AM 41.9994 -83.6847 195° South 379 436 17,600 1,920 Climbing Cleveland Center
08:39AM 41.9006 -83.7161 193° South 379 436 19,500 1,860 Climbing Cleveland Center
08:40AM 41.8036 -83.7506 195° South 374 430 21,400 1,200 Climbing Cleveland Center
08:41AM 41.7025 -83.7844 194° South 374 430 22,000 300 Climbing Cleveland Center
08:42AM 41.6069 -83.8492 207° Southwest 380 437 22,000  Level Cleveland Center
08:43AM 41.5067 -83.9300 211° Southwest 403 464 22,000  Level Cleveland Center
08:44AM 41.4042 -84.0078 210° Southwest 419 482 22,000  Level Cleveland Center
08:45AM 41.3100 -84.0858 212° Southwest 425 489 22,000  Level Cleveland Center
08:46AM 41.2217 -84.2442 233° Southwest 410 472 22,000  Level Chicago Center
08:48AM 41.1844 -84.3883 251° West 411 473 22,000  Level Chicago Center
08:49AM 41.1425 -84.5294 249° West 411 473 22,000  Level Chicago Center
08:50AM 41.0494 -84.6261 218° Southwest 428 493 22,000  Level Chicago Center
08:51AM 40.9353 -84.7353 216° Southwest 421 484 22,000  Level Chicago Center
08:52AM 40.8392 -84.8258 215° Southwest 423 487 22,000 -300 Level Chicago Center
08:53AM 40.7442 -84.9164 216° Southwest 422 486 21,400 -780 Descending Chicago Center
08:54AM 40.6483 -85.0081 216° Southwest 424 488 20,400 -720 Descending Chicago Center
08:55AM 40.5536 -85.1278 224° Southwest 416 479 20,000 -240 Descending Chicago Center
08:56AM 40.4703 -85.2378 225° Southwest 423 487 20,000 -780 Level Chicago Center
08:57AM 40.3869 -85.3453 225° Southwest 422 486 18,400 -1,860 Descending Chicago Center
08:58AM 40.2889 -85.4714 224° Southwest 411 473 15,800 -2,100 Descending Indianapolis Center
08:59AM 40.2139 -85.5697 225° Southwest 387 445 13,700 -1,860 Descending Indianapolis Center
09:00AM 40.1489 -85.6522 224° Southwest 326 375 12,000 -1,620 Descending Indianapolis Center
09:01AM 40.1053 -85.7353 236° Southwest 284 327 10,500 -1,320 Descending Indianapolis Center
09:02AM 40.0553 -85.8314 236° Southwest 269 310 9,300 -1,320 Descending Indianapolis Center
09:03AM 40.0067 -85.9111 231° Southwest 278 320 7,800 -1,140 Descending Indianapolis Center
09:04AM 39.9542 -85.9792 225° Southwest 268 308 7,000 -1,020 Descending Indianapolis Center
09:05AM 39.9050 -86.0428 225° Southwest 253 291 5,800 -1,260 Descending Indianapolis Center
09:06AM 39.8564 -86.1053 225° Southwest 250 288 4,500 -1,260 Descending Indianapolis Center